Terminal Aerodrome Forecast
Issued by NWS

Home | Current Version | Previous Version | Text Only | Print | Product List | Glossary On
Versions: 1 2 3 4 5 6 7 8 9 10 11 12 13 14 15 16 17 18 19 20 21 22
938
FTUS41 KPBZ 221128
TAFDUJ
TAF
KDUJ 221128Z 2212/2312 28010KT P6SM VCSH BKN060
      TEMPO 2212/2213 23007KT 4SM -SHRA
     FM221700 29012G22KT P6SM SCT050
     FM230000 VRB05KT P6SM SKC=

USA.gov is the U.S. government's official web portal to all federal, state and local government web resources and services.